Albany, New York
Traffic Map
Current Weather Conditions
Albany, New York
Clear
Clear
17°
Feels Like: 17°
Wind Chill: 17° Ceiling: Unl
Heat Index: 17° Visibility: 10mi
Dew Point: 12° Wind: 3mph
Humidity: 72% Direction: 210° (SSW)
Pressure: 29.86in Gusts: 0mph
Raw Report DataKALB 020551Z 21003KT 10SM CLR 17/12 A2986 RMK AO2 SLP110 T01720122 10244 20167 50002
Traffic Incident Summary
Active as of:
Severity:
Category:
InformationThere was an issue retrieving the traffic information for this location. Please try a different location or try again shortly.
Advertisements
Track Severe Weather on mobile